Time;durP1;ratioP1;P1;durP2;ratioP2;P2;SDS_P1;SDS_P2;PMS_P1;PMS_P2;Temp;Humidity;BMP_temperature;BMP_pressure;BME280_temperature;BME280_humidity;BME280_pressure;Samples;Min_cycle;Max_cycle;Signal;HPM_P1;HPM_P2
2021/06/28 00:03:53;;;;;;;15.20;10.70;;;19.00;99.90;;;;;;6748857;87;20639;-76
2021/06/28 00:13:54;;;;;;;16.15;11.70;;;18.90;99.90;;;;;;6751321;87;20200;-77
2021/06/28 00:23:55;;;;;;;16.08;11.80;;;18.90;99.90;;;;;;6764429;87;20570;-76
2021/06/28 00:33:56;;;;;;;14.57;11.50;;;19.10;99.90;;;;;;6755714;87;20204;-76
2021/06/28 00:43:56;;;;;;;15.20;11.35;;;18.80;99.90;;;;;;6750267;88;20220;-78
2021/06/28 00:53:58;;;;;;;15.60;11.63;;;18.70;99.90;;;;;;6749976;88;20179;-78
2021/06/28 01:03:58;;;;;;;15.10;11.68;;;18.50;99.90;;;;;;6750080;87;20579;-77
2021/06/28 01:13:59;;;;;;;16.83;12.32;;;18.40;99.90;;;;;;6751457;87;20210;-77
2021/06/28 01:24:00;;;;;;;15.15;11.93;;;18.30;99.90;;;;;;6752374;87;20202;-77
2021/06/28 01:34:00;;;;;;;14.98;11.02;;;18.40;99.90;;;;;;6752339;87;20197;-77
2021/06/28 01:44:01;;;;;;;15.52;10.68;;;18.40;99.90;;;;;;6752545;87;20238;-77
2021/06/28 01:54:01;;;;;;;14.73;11.15;;;18.20;99.90;;;;;;6748226;87;20199;-77
2021/06/28 02:04:02;;;;;;;18.08;11.65;;;18.20;99.90;;;;;;6749972;87;20660;-77
2021/06/28 02:14:03;;;;;;;18.62;11.63;;;18.10;99.90;;;;;;6751016;87;20188;-77
2021/06/28 02:24:04;;;;;;;18.77;12.43;;;17.90;99.90;;;;;;6747236;87;20199;-77
2021/06/28 02:34:05;;;;;;;17.65;11.88;;;18.30;99.90;;;;;;6749556;87;20302;-77
2021/06/28 02:44:05;;;;;;;14.85;11.57;;;18.40;99.90;;;;;;6751755;87;20244;-77
2021/06/28 02:54:06;;;;;;;15.15;11.00;;;18.30;99.90;;;;;;6747722;87;20195;-78
2021/06/28 03:04:06;;;;;;;16.53;11.47;;;18.00;99.90;;;;;;6752533;87;20375;-77
2021/06/28 03:14:07;;;;;;;17.52;12.07;;;17.80;99.90;;;;;;6751919;87;20263;-76
2021/06/28 03:24:08;;;;;;;16.37;11.05;;;17.80;99.90;;;;;;6753588;87;20973;-76
2021/06/28 03:34:08;;;;;;;18.27;11.83;;;17.70;99.90;;;;;;6755148;77;20607;-77
2021/06/28 03:44:09;;;;;;;18.35;12.45;;;17.70;99.90;;;;;;6755074;87;21027;-77
2021/06/28 03:54:09;;;;;;;30.70;15.50;;;17.60;99.90;;;;;;6757436;87;20247;-76
2021/06/28 04:04:10;;;;;;;26.83;15.77;;;18.00;99.90;;;;;;6757617;87;20246;-76
2021/06/28 04:14:12;;;;;;;33.95;18.05;;;17.80;99.90;;;;;;6754587;87;20308;-77
2021/06/28 04:24:13;;;;;;;28.60;16.17;;;17.80;99.90;;;;;;6756289;87;20927;-77
2021/06/28 04:34:14;;;;;;;30.63;18.33;;;18.00;99.90;;;;;;6753169;87;20190;-77
2021/06/28 04:44:14;;;;;;;29.23;17.48;;;18.30;99.90;;;;;;6754584;87;20699;-77
2021/06/28 04:54:15;;;;;;;31.02;18.02;;;18.30;99.90;;;;;;6757759;87;20200;-77
2021/06/28 05:04:16;;;;;;;32.55;19.00;;;18.40;99.90;;;;;;6759733;87;20238;-78
2021/06/28 05:14:16;;;;;;;35.20;18.73;;;18.50;99.90;;;;;;6756142;87;20191;-76
2021/06/28 05:24:17;;;;;;;36.13;19.85;;;18.60;99.90;;;;;;6756048;87;20176;-77
2021/06/28 05:34:17;;;;;;;30.95;19.70;;;18.70;99.90;;;;;;6757515;87;20653;-77
2021/06/28 05:44:18;;;;;;;30.87;19.50;;;18.80;99.90;;;;;;6757682;87;20168;-77
2021/06/28 05:54:18;;;;;;;23.58;16.48;;;19.10;99.90;;;;;;6758094;87;20550;-77
2021/06/28 06:04:19;;;;;;;22.80;16.02;;;19.30;99.90;;;;;;6755448;87;20204;-78
2021/06/28 06:14:20;;;;;;;22.08;14.82;;;19.60;99.90;;;;;;6750344;87;20322;-75
2021/06/28 06:24:24;;;;;;;18.87;13.82;;;19.80;99.90;;;;;;6759659;87;20238;-76
2021/06/28 06:34:25;;;;;;;19.73;14.30;;;19.90;99.90;;;;;;6758485;87;20188;-76
2021/06/28 06:44:25;;;;;;;18.37;12.35;;;20.50;99.90;;;;;;6754856;87;20228;-75
2021/06/28 06:54:26;;;;;;;17.73;11.40;;;21.10;99.90;;;;;;6757221;87;20686;-75
2021/06/28 07:04:26;;;;;;;11.82;9.90;;;21.20;99.90;;;;;;6755329;87;20893;-76
2021/06/28 07:14:27;;;;;;;11.77;8.27;;;22.10;99.90;;;;;;6755350;87;20192;-78
2021/06/28 07:24:28;;;;;;;9.57;7.95;;;22.90;99.90;;;;;;6750760;87;20193;-75
2021/06/28 07:34:28;;;;;;;11.02;7.10;;;23.40;99.90;;;;;;6753125;87;20215;-75
2021/06/28 07:44:29;;;;;;;8.80;6.68;;;24.20;99.90;;;;;;6754375;87;20593;-75
2021/06/28 07:54:30;;;;;;;9.00;7.20;;;24.50;99.90;;;;;;6754408;87;20350;-76
2021/06/28 08:04:31;;;;;;;11.20;6.62;;;25.50;99.90;;;;;;6756252;87;20191;-75
2021/06/28 08:14:31;;;;;;;10.63;6.57;;;26.10;99.90;;;;;;6753352;87;20196;-76
2021/06/28 08:24:32;;;;;;;10.07;7.18;;;25.60;99.90;;;;;;6755445;87;20501;-75
2021/06/28 08:34:32;;;;;;;8.30;6.57;;;25.30;99.90;;;;;;6756477;87;20275;-76
2021/06/28 08:44:34;;;;;;;7.75;5.12;;;26.00;99.90;;;;;;6755596;87;20317;-76
2021/06/28 08:54:34;;;;;;;7.05;5.00;;;25.30;99.90;;;;;;6756298;87;20230;-76
2021/06/28 09:04:35;;;;;;;6.93;5.28;;;25.60;99.90;;;;;;6754948;87;20215;-76
2021/06/28 09:14:54;;;;;;;5.80;4.90;;;25.70;99.90;;;;;;6756589;87;20265;-76
2021/06/28 09:24:55;;;;;;;6.93;5.40;;;25.60;99.90;;;;;;6752663;87;20742;-77
2021/06/28 09:35:00;;;;;;;6.55;4.80;;;26.00;99.90;;;;;;6753797;87;20384;-77
2021/06/28 09:45:13;;;;;;;6.40;4.45;;;27.20;99.90;;;;;;6756005;87;20192;-76
2021/06/28 09:55:24;;;;;;;8.50;4.43;;;26.50;99.90;;;;;;6753155;87;20198;-77
2021/06/28 10:05:31;;;;;;;6.03;4.53;;;25.40;99.90;;;;;;6756681;87;20180;-76
2021/06/28 10:15:36;;;;;;;7.37;4.82;;;25.70;99.90;;;;;;6754341;87;20192;-78
2021/06/28 10:25:38;;;;;;;8.15;4.85;;;26.90;99.90;;;;;;6753344;87;20203;-77
2021/06/28 10:35:41;;;;;;;6.60;4.50;;;27.00;99.90;;;;;;6765944;87;20212;-77
2021/06/28 10:45:44;;;;;;;10.13;4.70;;;27.70;99.90;;;;;;6762212;87;20193;-77
2021/06/28 10:55:45;;;;;;;5.37;4.10;;;28.50;99.90;;;;;;6763805;87;20687;-77
2021/06/28 11:06:25;;;;;;;4.67;4.13;;;29.30;99.90;;;;;;6756488;87;20260;-78
2021/06/28 11:16:32;;;;;;;6.97;3.90;;;28.40;99.90;;;;;;6741152;87;20512;-77
2021/06/28 11:26:37;;;;;;;6.72;4.00;;;28.20;99.90;;;;;;6758089;87;20184;-76
2021/06/28 11:36:40;;;;;;;4.90;3.30;;;29.40;99.90;;;;;;6757178;87;20255;-77
2021/06/28 11:46:41;;;;;;;3.05;2.47;;;31.60;99.30;;;;;;6759700;87;20210;-77
2021/06/28 11:56:53;;;;;;;3.67;2.27;;;32.00;93.80;;;;;;6763570;87;20281;-77
2021/06/28 12:06:55;;;;;;;4.25;2.90;;;31.20;92.70;;;;;;6761535;87;20314;-77
2021/06/28 12:16:56;;;;;;;3.05;2.30;;;31.60;92.00;;;;;;6764456;87;20674;-78
2021/06/28 12:27:06;;;;;;;3.00;2.70;;;30.70;93.30;;;;;;6763628;87;20192;-77
2021/06/28 12:37:07;;;;;;;3.15;2.70;;;29.60;95.00;;;;;;6766251;87;20787;-77
2021/06/28 12:47:11;;;;;;;3.87;2.90;;;29.10;95.80;;;;;;6767294;87;20180;-78
2021/06/28 12:57:24;;;;;;;5.22;2.92;;;30.40;96.10;;;;;;6767932;87;20211;-79
2021/06/28 13:07:25;;;;;;;3.30;2.87;;;31.40;95.10;;;;;;6767345;87;20197;-79
2021/06/28 13:17:27;;;;;;;3.30;2.92;;;32.10;95.10;;;;;;6765658;87;20289;-79
2021/06/28 13:27:32;;;;;;;4.22;3.00;;;31.80;95.50;;;;;;6770889;87;20202;-79
2021/06/28 13:37:33;;;;;;;3.60;2.97;;;30.90;96.30;;;;;;6766018;87;20793;-77
2021/06/28 13:47:49;;;;;;;3.97;2.70;;;29.70;96.80;;;;;;6761944;87;20189;-78
2021/06/28 13:58:02;;;;;;;6.25;3.20;;;28.70;98.90;;;;;;6764842;87;20641;-80
2021/06/28 14:08:07;;;;;;;2.83;2.50;;;28.10;99.90;;;;;;6770128;87;20279;-77
2021/06/28 14:18:07;;;;;;;4.03;2.10;;;28.90;98.40;;;;;;6766627;87;20196;-79
2021/06/28 14:28:08;;;;;;;2.47;1.77;;;29.60;95.30;;;;;;6767079;87;20270;-77
2021/06/28 14:38:08;;;;;;;2.00;1.80;;;30.50;93.10;;;;;;6761873;87;20185;-77
2021/06/28 14:48:10;;;;;;;2.47;1.70;;;30.30;92.50;;;;;;6766498;87;20192;-78
2021/06/28 14:58:11;;;;;;;2.57;1.70;;;30.60;91.00;;;;;;6766074;87;20298;-79
2021/06/28 15:08:12;;;;;;;2.67;1.80;;;30.70;90.30;;;;;;6758113;87;20545;-77
2021/06/28 15:18:12;;;;;;;2.87;1.62;;;30.30;90.30;;;;;;6765121;87;21224;-77
2021/06/28 15:28:13;;;;;;;2.53;2.10;;;29.30;92.80;;;;;;6765805;87;20201;-79
2021/06/28 15:38:14;;;;;;;2.95;2.22;;;29.30;93.70;;;;;;6759079;87;20224;-78
2021/06/28 15:48:14;;;;;;;3.00;2.33;;;30.40;93.10;;;;;;6770076;87;20359;-78
2021/06/28 15:58:15;;;;;;;2.85;1.87;;;31.00;92.20;;;;;;6773721;87;20231;-78
2021/06/28 16:08:15;;;;;;;2.65;1.90;;;31.10;91.80;;;;;;6769182;87;20696;-77
2021/06/28 16:18:16;;;;;;;2.10;1.60;;;31.00;91.40;;;;;;6769688;87;20232;-78
2021/06/28 16:28:17;;;;;;;5.10;1.87;;;31.20;91.20;;;;;;6770404;87;20305;-78
2021/06/28 16:38:19;;;;;;;2.37;1.33;;;30.70;91.60;;;;;;6771446;87;20183;-78
2021/06/28 16:48:19;;;;;;;1.62;1.12;;;31.30;89.60;;;;;;6771461;87;20198;-78
2021/06/28 16:58:20;;;;;;;1.75;1.15;;;30.60;86.80;;;;;;6774785;87;20190;-78
2021/06/28 17:08:22;;;;;;;1.40;1.00;;;30.10;85.90;;;;;;6776650;87;20192;-78
2021/06/28 17:18:23;;;;;;;1.92;1.33;;;29.60;87.70;;;;;;6778714;87;20202;-79
2021/06/28 17:28:23;;;;;;;2.58;1.70;;;29.60;91.30;;;;;;6773857;87;20230;-79
2021/06/28 17:38:24;;;;;;;4.53;2.37;;;30.20;93.20;;;;;;6773227;87;20255;-78
2021/06/28 17:48:24;;;;;;;3.63;2.40;;;29.10;96.80;;;;;;6775917;87;20191;-78
2021/06/28 17:58:26;;;;;;;3.47;2.30;;;27.60;99.90;;;;;;6765056;87;20311;-79
2021/06/28 18:08:27;;;;;;;3.95;2.28;;;26.80;99.90;;;;;;6768355;87;20237;-78
2021/06/28 18:18:28;;;;;;;5.62;2.40;;;26.30;99.90;;;;;;6774683;87;20225;-78
2021/06/28 18:28:31;;;;;;;5.30;2.50;;;26.00;99.90;;;;;;6775168;87;20596;-77
2021/06/28 18:38:32;;;;;;;4.50;2.20;;;25.70;99.90;;;;;;6773158;76;21219;-77
2021/06/28 18:48:33;;;;;;;3.08;2.60;;;25.30;99.90;;;;;;6733093;88;20197;-77
2021/06/28 18:58:34;;;;;;;7.22;2.65;;;25.00;99.90;;;;;;6724733;88;20641;-78
2021/06/28 19:08:35;;;;;;;4.22;2.20;;;24.80;99.90;;;;;;6724843;88;20233;-77
2021/06/28 19:18:35;;;;;;;3.92;2.40;;;24.50;99.90;;;;;;6724253;88;20660;-77
2021/06/28 19:28:38;;;;;;;4.32;2.15;;;24.20;99.90;;;;;;6723210;88;20739;-76
2021/06/28 19:38:38;;;;;;;3.03;2.20;;;24.00;99.90;;;;;;6723499;88;20281;-79
2021/06/28 19:48:39;;;;;;;2.92;2.30;;;23.60;99.90;;;;;;6726893;88;20220;-79
2021/06/28 19:58:40;;;;;;;2.72;2.40;;;23.60;99.90;;;;;;6723698;88;20365;-78
2021/06/28 20:08:40;;;;;;;4.05;2.92;;;23.50;99.90;;;;;;6725983;88;20369;-79
2021/06/28 20:18:41;;;;;;;4.22;2.30;;;23.40;99.90;;;;;;6727273;88;20676;-80
2021/06/28 20:28:41;;;;;;;3.80;2.60;;;23.20;99.90;;;;;;6723727;88;20198;-79
2021/06/28 20:38:42;;;;;;;6.97;2.47;;;23.20;99.90;;;;;;6722068;88;20219;-78
2021/06/28 20:48:42;;;;;;;5.05;2.65;;;23.20;99.90;;;;;;6721506;88;20182;-78
2021/06/28 20:58:43;;;;;;;3.37;2.70;;;23.20;99.90;;;;;;6719424;88;20633;-77
2021/06/28 21:08:44;;;;;;;4.65;2.40;;;23.10;99.90;;;;;;6722508;88;20193;-78
2021/06/28 21:18:45;;;;;;;5.10;2.97;;;23.00;99.90;;;;;;6723427;88;20210;-78
2021/06/28 21:28:46;;;;;;;3.42;2.90;;;22.90;99.90;;;;;;6726288;88;20217;-81
2021/06/28 21:38:46;;;;;;;5.78;3.20;;;22.80;99.90;;;;;;6737996;88;21010;-81
2021/06/28 21:48:47;;;;;;;4.93;2.97;;;23.00;99.90;;;;;;6735239;88;20263;-79
2021/06/28 21:58:47;;;;;;;4.03;3.03;;;22.60;99.90;;;;;;6752845;88;21602;-79
2021/06/28 22:08:49;;;;;;;4.80;3.15;;;22.40;99.90;;;;;;6747444;88;20209;-79
2021/06/28 22:18:49;;;;;;;7.15;4.37;;;22.30;99.90;;;;;;6738337;88;20189;-80
2021/06/28 22:28:50;;;;;;;4.63;3.27;;;22.60;99.90;;;;;;6733768;88;20766;-80
2021/06/28 22:38:50;;;;;;;4.22;3.15;;;22.30;99.90;;;;;;6736074;88;21037;-79
2021/06/28 22:48:51;;;;;;;5.85;3.37;;;22.10;99.90;;;;;;6736310;88;20228;-79
2021/06/28 22:58:53;;;;;;;3.80;3.08;;;22.10;99.90;;;;;;6741055;88;20675;-80
2021/06/28 23:08:53;;;;;;;4.25;3.47;;;22.00;99.90;;;;;;6738959;88;20182;-79
2021/06/28 23:18:54;;;;;;;5.37;3.33;;;22.20;99.90;;;;;;6743001;88;20203;-79
2021/06/28 23:28:54;;;;;;;4.80;3.30;;;21.90;99.90;;;;;;6738300;88;20180;-79
2021/06/28 23:38:55;;;;;;;4.87;3.45;;;21.90;99.90;;;;;;6735572;88;20189;-78
2021/06/28 23:48:56;;;;;;;6.78;3.37;;;21.80;99.90;;;;;;6734194;88;20215;-79
2021/06/28 23:58:56;;;;;;;6.18;3.47;;;21.50;99.90;;;;;;6734801;88;20188;-79
